createdAt,value
2022-12-28T00:01:47.018Z,3.47
2022-12-28T00:04:15.663Z,3.60
2022-12-28T00:06:42.743Z,3.80
2022-12-28T00:09:12.260Z,4.00
2022-12-28T00:11:39.170Z,3.67
2022-12-28T00:14:06.104Z,3.10
2022-12-28T00:16:38.482Z,4.03
2022-12-28T00:19:10.444Z,3.47
2022-12-28T00:21:37.357Z,2.90
2022-12-28T00:24:04.630Z,3.53
2022-12-28T00:26:33.453Z,2.83
2022-12-28T00:29:04.905Z,3.25
2022-12-28T00:31:33.659Z,2.97
2022-12-28T00:34:00.908Z,2.97
2022-12-28T00:37:08.789Z,2.72
2022-12-28T00:39:14.871Z,3.50
2022-12-28T00:41:41.751Z,3.10
2022-12-28T00:44:08.782Z,3.03
2022-12-28T00:46:35.709Z,2.83
2022-12-28T00:49:02.496Z,3.75
2022-12-28T00:51:29.276Z,3.38
2022-12-28T00:53:56.040Z,3.60
2022-12-28T00:56:23.552Z,3.50
2022-12-28T00:58:55.149Z,3.47
2022-12-28T01:01:24.060Z,2.97
2022-12-28T01:03:51.098Z,3.08
2022-12-28T01:06:20.535Z,2.83
2022-12-28T01:08:47.559Z,2.67
2022-12-28T01:11:19.105Z,3.28
2022-12-28T01:13:46.923Z,3.20
2022-12-28T01:16:30.677Z,3.08
2022-12-28T01:19:00.396Z,3.30
2022-12-28T01:21:30.487Z,2.97
2022-12-28T01:23:59.759Z,2.83
2022-12-28T01:26:27.564Z,3.22
2022-12-28T01:28:56.071Z,3.38
2022-12-28T01:31:23.226Z,2.97
2022-12-28T01:33:51.187Z,3.38
2022-12-28T01:36:19.415Z,3.65
2022-12-28T01:38:46.948Z,3.55
2022-12-28T01:41:16.862Z,3.30
2022-12-28T01:43:52.235Z,3.90
2022-12-28T01:46:50.154Z,4.20
2022-12-28T01:49:31.091Z,3.95
2022-12-28T01:52:23.829Z,4.22
2022-12-28T01:55:13.778Z,4.65
2022-12-28T01:58:06.567Z,3.50
2022-12-28T02:00:34.794Z,4.28
2022-12-28T02:03:16.320Z,4.30
2022-12-28T02:05:52.160Z,3.75
2022-12-28T02:08:22.853Z,4.28
2022-12-28T02:10:52.251Z,3.65
2022-12-28T02:13:21.114Z,4.03
2022-12-28T02:16:10.029Z,4.10
2022-12-28T02:18:36.988Z,4.38
2022-12-28T02:21:22.591Z,4.65
2022-12-28T02:24:10.740Z,4.65
2022-12-28T02:27:01.829Z,3.63
2022-12-28T02:29:51.890Z,4.70
2022-12-28T02:32:24.437Z,3.85
2022-12-28T02:34:53.994Z,3.60
2022-12-28T02:37:45.429Z,3.60
2022-12-28T02:40:35.051Z,3.55
2022-12-28T02:43:03.416Z,4.38
2022-12-28T02:45:55.194Z,4.00
2022-12-28T02:48:41.001Z,3.85
2022-12-28T02:51:29.492Z,3.90
2022-12-28T02:54:35.461Z,4.07
2022-12-28T02:57:18.958Z,3.92
2022-12-28T03:00:00.769Z,4.13
2022-12-28T03:02:47.673Z,4.00
2022-12-28T03:05:44.592Z,3.90
2022-12-28T03:08:21.870Z,4.68
2022-12-28T03:11:00.140Z,4.03
2022-12-28T03:13:45.915Z,3.72
2022-12-28T03:16:24.647Z,4.18
2022-12-28T03:19:21.808Z,4.30
2022-12-28T03:22:11.216Z,3.75
2022-12-28T03:24:58.491Z,3.90
2022-12-28T03:27:48.753Z,4.57
2022-12-28T03:30:40.236Z,4.90
2022-12-28T03:33:11.967Z,4.75
2022-12-28T03:36:00.840Z,5.10
2022-12-28T03:38:53.139Z,4.90
2022-12-28T03:41:45.264Z,4.95
2022-12-28T03:44:35.103Z,6.60
2022-12-28T03:47:12.891Z,6.40
2022-12-28T03:49:40.872Z,6.05
2022-12-28T03:52:09.928Z,7.10
2022-12-28T03:54:36.948Z,6.53
2022-12-28T03:57:03.850Z,7.25
2022-12-28T03:59:35.699Z,6.93
2022-12-28T04:02:02.678Z,7.18
2022-12-28T04:04:31.615Z,7.22
2022-12-28T04:06:58.464Z,6.43
2022-12-28T04:09:25.390Z,6.90
2022-12-28T04:11:53.339Z,6.30
2022-12-28T04:14:35.627Z,6.80
2022-12-28T04:17:02.479Z,7.10
2022-12-28T04:19:30.574Z,6.75
2022-12-28T04:21:57.368Z,7.78
2022-12-28T04:24:24.235Z,6.80
2022-12-28T04:26:51.305Z,6.30
2022-12-28T04:29:18.147Z,6.60
2022-12-28T04:31:49.567Z,5.75
2022-12-28T04:34:19.399Z,6.63
2022-12-28T04:37:18.592Z,6.22
2022-12-28T04:39:55.273Z,6.28
2022-12-28T04:42:25.382Z,6.40
2022-12-28T04:44:52.162Z,6.53
2022-12-28T04:47:18.923Z,5.88
2022-12-28T04:49:45.994Z,5.80
2022-12-28T04:52:12.836Z,6.55
2022-12-28T04:54:39.779Z,6.60
2022-12-28T04:57:06.998Z,7.22
2022-12-28T04:59:33.767Z,5.65
2022-12-28T05:02:00.806Z,6.40
2022-12-28T05:04:27.775Z,6.70
2022-12-28T05:06:54.560Z,5.63
2022-12-28T05:09:21.589Z,6.55
2022-12-28T05:11:48.401Z,6.43
2022-12-28T05:14:15.399Z,6.03
2022-12-28T05:16:42.404Z,5.78
2022-12-28T05:19:09.402Z,6.45
2022-12-28T05:21:36.421Z,5.65
2022-12-28T05:24:03.279Z,6.43
2022-12-28T05:26:30.410Z,6.38
2022-12-28T05:28:58.810Z,5.95
2022-12-28T05:31:26.269Z,6.20
2022-12-28T05:33:53.885Z,6.10
2022-12-28T05:36:25.906Z,5.95
2022-12-28T05:38:53.860Z,6.35
2022-12-28T05:41:28.572Z,6.70
2022-12-28T05:43:56.425Z,6.78
2022-12-28T05:46:25.945Z,6.68
2022-12-28T05:48:55.144Z,6.55
2022-12-28T05:51:24.806Z,5.93
2022-12-28T05:53:51.800Z,6.18
2022-12-28T05:56:24.198Z,7.10
2022-12-28T05:59:05.677Z,8.38
2022-12-28T06:01:35.905Z,7.68
2022-12-28T06:04:09.150Z,6.65
2022-12-28T06:06:36.550Z,8.32
2022-12-28T06:09:03.725Z,8.05
2022-12-28T06:11:31.163Z,8.25
2022-12-28T06:13:59.870Z,7.78
2022-12-28T06:16:29.331Z,7.85
2022-12-28T06:18:56.903Z,8.80
2022-12-28T06:21:29.061Z,7.32
2022-12-28T06:24:00.347Z,7.45
2022-12-28T06:26:29.020Z,7.55
2022-12-28T06:28:55.869Z,7.70
2022-12-28T06:31:25.034Z,8.80
2022-12-28T06:33:57.270Z,12.70
2022-12-28T06:36:30.508Z,17.42
2022-12-28T06:38:59.415Z,20.00
2022-12-28T06:41:28.939Z,21.70
2022-12-28T06:43:56.488Z,26.80
2022-12-28T06:46:26.159Z,28.35
2022-12-28T06:48:53.180Z,29.52
2022-12-28T06:51:25.661Z,29.33
2022-12-28T06:53:53.584Z,29.10
2022-12-28T06:56:26.027Z,28.17
2022-12-28T06:59:00.355Z,27.45
2022-12-28T07:01:33.108Z,30.08
2022-12-28T07:04:02.136Z,28.33
2022-12-28T07:06:30.119Z,26.85
2022-12-28T07:09:01.875Z,29.15
2022-12-28T07:11:29.223Z,20.38
2022-12-28T07:13:56.431Z,18.35
2022-12-28T07:16:24.621Z,13.70
2022-12-28T07:18:51.575Z,15.63
2022-12-28T07:21:24.395Z,13.50
2022-12-28T07:23:53.053Z,11.80
2022-12-28T07:26:22.631Z,11.25
2022-12-28T07:28:52.494Z,9.90
2022-12-28T07:31:22.846Z,9.00
2022-12-28T07:33:51.156Z,9.30
2022-12-28T07:36:19.934Z,8.70
2022-12-28T07:38:47.216Z,8.90
2022-12-28T07:41:20.047Z,7.65
2022-12-28T07:43:47.191Z,7.53
2022-12-28T07:46:19.591Z,7.65
2022-12-28T07:48:47.185Z,7.15
2022-12-28T07:51:18.554Z,7.20
2022-12-28T07:53:47.578Z,7.45
2022-12-28T07:56:15.242Z,6.50
2022-12-28T08:01:13.653Z,6.13
2022-12-28T08:03:42.113Z,6.97
2022-12-28T08:06:20.585Z,6.20
2022-12-28T08:08:50.432Z,6.65
2022-12-28T08:11:23.578Z,6.07
2022-12-28T08:13:52.536Z,6.65
2022-12-28T08:16:21.329Z,6.68
2022-12-28T08:18:49.333Z,6.93
2022-12-28T08:21:24.564Z,6.28
2022-12-28T08:23:52.033Z,6.28
2022-12-28T08:26:23.307Z,6.70
2022-12-28T08:28:53.116Z,6.32
2022-12-28T08:31:29.199Z,6.57
2022-12-28T08:33:57.403Z,5.65
2022-12-28T08:36:24.912Z,6.30
2022-12-28T08:38:51.981Z,6.70
2022-12-28T08:41:25.100Z,6.30
2022-12-28T08:43:53.960Z,6.45
2022-12-28T08:46:26.793Z,6.07
2022-12-28T08:48:55.893Z,6.88
2022-12-28T08:51:30.553Z,6.75
2022-12-28T08:53:57.759Z,6.97
2022-12-28T08:56:30.296Z,6.85
2022-12-28T08:58:58.167Z,7.45
2022-12-28T09:01:38.941Z,6.30
2022-12-28T09:04:15.412Z,6.50
2022-12-28T09:06:42.395Z,6.05
2022-12-28T09:09:13.072Z,7.35
2022-12-28T09:11:41.092Z,6.60
2022-12-28T09:14:10.300Z,7.32
2022-12-28T09:16:40.132Z,6.57
2022-12-28T09:19:09.462Z,6.15
2022-12-28T09:21:38.493Z,6.40
2022-12-28T09:24:06.323Z,7.40
2022-12-28T09:26:36.564Z,7.05
2022-12-28T09:29:06.348Z,6.97
2022-12-28T09:31:36.993Z,6.60
2022-12-28T09:34:34.923Z,6.75
2022-12-28T09:36:52.753Z,7.05
2022-12-28T09:39:24.713Z,7.97
2022-12-28T09:42:03.225Z,6.50
2022-12-28T09:44:42.861Z,6.72
2022-12-28T09:47:37.651Z,5.70
2022-12-28T09:50:30.144Z,6.70
2022-12-28T09:53:19.923Z,6.10
2022-12-28T09:56:06.118Z,6.50
2022-12-28T09:58:36.850Z,6.50
2022-12-28T10:01:09.443Z,7.22
2022-12-28T10:03:41.355Z,7.10
2022-12-28T10:06:25.332Z,6.75
2022-12-28T10:08:56.256Z,6.53
2022-12-28T10:11:29.658Z,7.45
2022-12-28T10:14:01.656Z,7.18
2022-12-28T10:16:36.684Z,6.78
2022-12-28T10:19:06.090Z,6.90
2022-12-28T10:21:34.922Z,6.90
2022-12-28T10:24:31.006Z,6.18
2022-12-28T10:26:54.382Z,6.88
2022-12-28T10:29:23.594Z,7.72
2022-12-28T10:32:01.116Z,6.10
2022-12-28T10:34:36.960Z,6.72
2022-12-28T10:37:18.305Z,5.95
2022-12-28T10:39:52.758Z,6.75
2022-12-28T10:42:30.920Z,5.82
2022-12-28T10:45:07.054Z,6.88
2022-12-28T10:47:42.226Z,6.60
2022-12-28T10:50:44.487Z,6.18
2022-12-28T10:53:20.888Z,5.40
2022-12-28T10:55:47.860Z,6.15
2022-12-28T10:58:31.844Z,7.22
2022-12-28T11:01:06.802Z,6.30
2022-12-28T11:06:26.260Z,6.15
2022-12-28T11:09:29.985Z,7.00
2022-12-28T11:12:17.890Z,6.38
2022-12-28T11:14:44.743Z,6.70
2022-12-28T11:17:25.852Z,7.15
2022-12-28T11:20:03.457Z,7.50
2022-12-28T11:22:33.128Z,8.00
2022-12-28T11:25:01.181Z,7.88
2022-12-28T11:27:30.124Z,7.78
2022-12-28T11:29:57.485Z,7.30
2022-12-28T11:32:31.019Z,6.88
2022-12-28T11:34:59.162Z,6.88
2022-12-28T11:37:26.015Z,7.55
2022-12-28T11:39:53.700Z,7.55
2022-12-28T11:42:41.221Z,7.32
2022-12-28T11:45:18.202Z,7.57
2022-12-28T11:47:45.767Z,7.28
2022-12-28T11:50:36.670Z,7.05
2022-12-28T11:53:18.881Z,7.07
2022-12-28T11:56:02.946Z,6.85
2022-12-28T11:58:42.280Z,7.05
2022-12-28T12:01:37.041Z,7.55
2022-12-28T12:04:10.168Z,7.35
2022-12-28T12:06:43.330Z,7.47
2022-12-28T12:09:22.195Z,8.13
2022-12-28T12:11:58.934Z,6.72
2022-12-28T12:14:47.811Z,8.48
2022-12-28T12:17:42.689Z,7.88
2022-12-28T12:20:19.069Z,8.05
2022-12-28T12:22:55.347Z,6.95
2022-12-28T12:25:32.525Z,7.30
2022-12-28T12:28:06.167Z,7.50
2022-12-28T12:30:33.364Z,7.78
2022-12-28T12:33:05.241Z,7.45
2022-12-28T12:35:42.421Z,7.32
2022-12-28T12:38:30.359Z,7.80
2022-12-28T12:41:09.183Z,7.13
2022-12-28T12:43:47.397Z,7.43
2022-12-28T12:47:05.458Z,8.32
2022-12-28T12:49:54.445Z,7.97
2022-12-28T12:52:42.531Z,7.80
2022-12-28T12:55:50.637Z,8.75
2022-12-28T12:58:29.017Z,8.30
2022-12-28T13:01:09.248Z,8.63
2022-12-28T13:03:45.554Z,8.30
2022-12-28T13:06:17.173Z,7.82
2022-12-28T13:08:52.644Z,8.20
2022-12-28T13:11:20.934Z,8.55
2022-12-28T13:13:54.828Z,7.18
2022-12-28T13:16:27.285Z,7.38
2022-12-28T13:19:06.584Z,7.63
2022-12-28T13:21:46.349Z,8.10
2022-12-28T13:24:27.417Z,6.65
2022-12-28T13:26:56.318Z,7.70
2022-12-28T13:29:25.981Z,7.55
2022-12-28T13:31:53.312Z,6.43
2022-12-28T13:34:24.102Z,7.18
2022-12-28T13:37:02.578Z,7.65
2022-12-28T13:39:36.757Z,8.40
2022-12-28T13:42:30.437Z,7.18
2022-12-28T13:45:07.605Z,8.07
2022-12-28T13:47:39.991Z,8.13
2022-12-28T13:50:12.502Z,8.33
2022-12-28T13:52:50.929Z,8.73
2022-12-28T13:55:24.269Z,8.90
2022-12-28T14:00:27.461Z,8.50
2022-12-28T14:02:57.040Z,8.63
2022-12-28T14:05:27.360Z,9.13
2022-12-28T14:07:56.496Z,9.85
2022-12-28T14:10:24.223Z,10.45
2022-12-28T14:12:52.734Z,10.98
2022-12-28T14:15:20.097Z,11.93
2022-12-28T14:17:49.410Z,11.15
2022-12-28T14:20:16.589Z,10.32
2022-12-28T14:22:43.603Z,9.95
2022-12-28T14:25:17.828Z,8.57
2022-12-28T14:27:57.265Z,8.95
2022-12-28T14:30:31.363Z,8.00
2022-12-28T14:33:19.381Z,7.68
2022-12-28T14:35:52.998Z,7.93
2022-12-28T14:38:28.121Z,7.57
2022-12-28T14:40:57.230Z,7.57
2022-12-28T14:43:35.747Z,8.82
2022-12-28T14:46:33.820Z,7.15
2022-12-28T14:49:21.072Z,7.45
2022-12-28T14:51:48.168Z,7.68
2022-12-28T14:54:20.163Z,8.25
2022-12-28T14:57:13.544Z,8.60
2022-12-28T14:59:44.431Z,8.57
2022-12-28T15:02:34.285Z,8.32
2022-12-28T15:05:02.118Z,8.35
2022-12-28T15:07:32.207Z,8.27
2022-12-28T15:10:00.415Z,8.43
2022-12-28T15:12:27.208Z,9.55
2022-12-28T15:14:53.934Z,11.65
2022-12-28T15:17:20.703Z,14.10
2022-12-28T15:19:48.104Z,20.90
2022-12-28T15:22:15.709Z,18.35
2022-12-28T15:24:48.943Z,14.82
2022-12-28T15:27:15.740Z,14.63
2022-12-28T15:32:31.206Z,15.85
2022-12-28T15:34:58.032Z,16.55
2022-12-28T15:37:24.826Z,16.02
2022-12-28T15:39:52.598Z,16.23
2022-12-28T15:42:19.384Z,15.68
2022-12-28T15:44:48.517Z,15.27
2022-12-28T15:47:15.413Z,15.80
2022-12-28T15:49:42.276Z,15.27
2022-12-28T15:52:09.131Z,15.77
2022-12-28T15:54:36.477Z,15.48
2022-12-28T15:57:04.834Z,16.58
2022-12-28T15:59:31.699Z,16.63
2022-12-28T16:01:58.768Z,16.70
2022-12-28T16:04:25.652Z,14.15
2022-12-28T16:06:52.417Z,14.82
2022-12-28T16:09:19.185Z,15.60
2022-12-28T16:11:50.174Z,15.88
2022-12-28T16:14:20.045Z,16.20
2022-12-28T16:16:47.097Z,16.83
2022-12-28T16:19:15.549Z,18.80
2022-12-28T16:21:44.399Z,17.95
2022-12-28T16:24:11.807Z,22.33
2022-12-28T16:26:38.630Z,21.05
2022-12-28T16:29:05.469Z,21.00
2022-12-28T16:31:35.323Z,18.73
2022-12-28T16:34:03.867Z,19.08
2022-12-28T16:36:31.023Z,17.95
2022-12-28T16:38:57.986Z,16.90
2022-12-28T16:41:26.388Z,14.88
2022-12-28T16:44:02.640Z,15.30
2022-12-28T16:46:29.604Z,16.80
2022-12-28T16:48:56.583Z,14.85
2022-12-28T16:51:24.199Z,15.35
2022-12-28T16:53:50.972Z,17.42
2022-12-28T16:56:17.729Z,14.15
2022-12-28T16:58:48.913Z,13.23
2022-12-28T17:01:17.620Z,13.70
2022-12-28T17:03:44.576Z,13.13
2022-12-28T17:06:11.394Z,12.82
2022-12-28T17:08:38.194Z,12.00
2022-12-28T17:11:09.785Z,12.85
2022-12-28T17:13:37.444Z,13.63
2022-12-28T17:16:04.651Z,14.48
2022-12-28T17:18:31.518Z,11.98
2022-12-28T17:21:04.754Z,11.73
2022-12-28T17:23:33.749Z,12.90
2022-12-28T17:26:00.667Z,12.45
2022-12-28T17:28:27.493Z,12.43
2022-12-28T17:31:05.129Z,11.63
2022-12-28T17:33:38.745Z,12.13
2022-12-28T17:36:06.723Z,11.63
2022-12-28T17:38:33.634Z,11.63
2022-12-28T17:41:00.341Z,13.32
2022-12-28T17:43:27.156Z,11.48
2022-12-28T17:45:53.993Z,11.43
2022-12-28T17:48:26.972Z,11.10
2022-12-28T17:50:53.702Z,11.57
2022-12-28T17:53:20.443Z,10.43
2022-12-28T17:55:47.226Z,11.07
2022-12-28T17:58:14.171Z,12.10
2022-12-28T18:00:41.014Z,11.43
2022-12-28T18:03:07.827Z,11.68
2022-12-28T18:05:34.734Z,12.02
2022-12-28T18:08:01.484Z,11.20
2022-12-28T18:10:28.263Z,10.77
2022-12-28T18:12:55.084Z,11.02
2022-12-28T18:15:21.848Z,10.73
2022-12-28T18:17:48.683Z,11.95
2022-12-28T18:20:16.183Z,12.52
2022-12-28T18:22:44.151Z,11.52
2022-12-28T18:25:10.961Z,13.25
2022-12-28T18:27:37.826Z,12.70
2022-12-28T18:30:04.973Z,13.15
2022-12-28T18:32:32.447Z,16.08
2022-12-28T18:34:59.293Z,15.50
2022-12-28T18:37:26.478Z,16.25
2022-12-28T18:39:55.226Z,15.82
2022-12-28T18:42:22.054Z,15.60
2022-12-28T18:44:48.900Z,14.15
2022-12-28T18:47:15.694Z,14.98
2022-12-28T18:49:46.885Z,15.02
2022-12-28T18:52:15.770Z,16.05
2022-12-28T18:54:42.712Z,13.57
2022-12-28T18:57:10.173Z,15.30
2022-12-28T18:59:37.115Z,14.55
2022-12-28T19:02:06.805Z,15.43
2022-12-28T19:04:34.636Z,13.20
2022-12-28T19:07:01.469Z,14.32
2022-12-28T19:09:28.372Z,12.02
2022-12-28T19:11:55.615Z,12.50
2022-12-28T19:14:22.450Z,12.70
2022-12-28T19:16:49.277Z,12.07
2022-12-28T19:19:17.650Z,12.05
2022-12-28T19:21:44.895Z,13.98
2022-12-28T19:24:17.950Z,13.30
2022-12-28T19:26:45.640Z,13.32
2022-12-28T19:29:13.756Z,12.05
2022-12-28T19:31:40.617Z,11.52
2022-12-28T19:34:07.533Z,11.02
2022-12-28T19:36:34.390Z,11.10
2022-12-28T19:39:01.172Z,11.77
2022-12-28T19:41:28.030Z,12.02
2022-12-28T19:43:55.048Z,11.27
2022-12-28T19:46:30.688Z,10.93
2022-12-28T19:49:02.556Z,13.00
2022-12-28T19:51:32.177Z,11.38
2022-12-28T19:54:02.586Z,10.73
2022-12-28T19:56:29.549Z,12.38
2022-12-28T19:59:04.937Z,13.88
2022-12-28T20:01:33.281Z,11.35
2022-12-28T20:04:00.336Z,10.43
2022-12-28T20:06:29.460Z,10.73
2022-12-28T20:08:58.979Z,11.45
2022-12-28T20:11:26.542Z,11.63
2022-12-28T20:13:58.621Z,10.82
2022-12-28T20:16:27.496Z,11.60
2022-12-28T20:18:55.556Z,11.50
2022-12-28T20:21:24.576Z,11.07
2022-12-28T20:23:52.955Z,12.18
2022-12-28T20:26:21.378Z,13.15
2022-12-28T20:28:50.742Z,13.15
2022-12-28T20:31:17.978Z,12.85
2022-12-28T20:33:45.536Z,12.60
2022-12-28T20:36:18.426Z,12.07
2022-12-28T20:38:45.799Z,19.35
2022-12-28T20:41:37.023Z,14.88
2022-12-28T20:44:09.186Z,13.13
2022-12-28T20:46:36.445Z,11.35
2022-12-28T20:49:03.808Z,11.95
2022-12-28T20:51:30.777Z,12.93
2022-12-28T20:53:57.523Z,12.43
2022-12-28T20:56:24.460Z,12.13
2022-12-28T20:58:51.322Z,11.50
2022-12-28T21:01:19.064Z,11.50
2022-12-28T21:03:46.868Z,11.95
2022-12-28T21:06:14.296Z,12.07
2022-12-28T21:08:41.386Z,12.55
2022-12-28T21:11:08.184Z,12.05
2022-12-28T21:13:38.109Z,11.38
2022-12-28T21:16:09.856Z,11.38
2022-12-28T21:18:36.746Z,12.15
2022-12-28T21:21:03.690Z,13.25
2022-12-28T21:23:31.939Z,12.88
2022-12-28T21:26:03.498Z,12.73
2022-12-28T21:28:31.599Z,11.25
2022-12-28T21:31:00.046Z,12.65
2022-12-28T21:33:26.883Z,12.68
2022-12-28T21:36:01.703Z,13.05
2022-12-28T21:38:29.265Z,12.75
2022-12-28T21:41:04.194Z,12.82
2022-12-28T21:43:32.097Z,12.35
2022-12-28T21:46:11.272Z,11.88
2022-12-28T21:48:38.579Z,11.45
2022-12-28T21:51:31.200Z,11.05
2022-12-28T21:54:04.318Z,11.88
2022-12-28T21:56:32.058Z,11.55
2022-12-28T21:58:59.667Z,11.77
2022-12-28T22:01:46.740Z,11.70
2022-12-28T22:04:35.448Z,10.82
2022-12-28T22:07:03.229Z,11.45
2022-12-28T22:09:48.488Z,11.60
2022-12-28T22:12:34.106Z,11.00
2022-12-28T22:15:26.312Z,10.80
2022-12-28T22:17:59.092Z,11.55
2022-12-28T22:20:28.069Z,10.95
2022-12-28T22:22:59.288Z,11.55
2022-12-28T22:25:26.745Z,11.10
2022-12-28T22:27:53.544Z,10.70
2022-12-28T22:30:20.405Z,11.00
2022-12-28T22:32:47.776Z,10.10
2022-12-28T22:35:14.846Z,11.05
2022-12-28T22:37:42.820Z,10.77
2022-12-28T22:40:10.787Z,10.30
2022-12-28T22:42:45.128Z,11.15
2022-12-28T22:45:15.007Z,9.52
2022-12-28T22:47:42.657Z,11.13
2022-12-28T22:50:12.571Z,10.68
2022-12-28T22:52:39.614Z,11.40
2022-12-28T22:55:07.347Z,11.45
2022-12-28T22:57:34.194Z,11.82
2022-12-28T23:00:01.018Z,10.88
2022-12-28T23:02:30.504Z,10.48
2022-12-28T23:04:57.384Z,9.68
2022-12-28T23:07:24.124Z,9.80
2022-12-28T23:09:51.104Z,9.70
2022-12-28T23:12:17.888Z,9.73
2022-12-28T23:15:03.342Z,10.07
2022-12-28T23:17:31.507Z,10.25
2022-12-28T23:20:17.061Z,10.45
2022-12-28T23:23:02.325Z,10.18
2022-12-28T23:25:47.886Z,11.05
2022-12-28T23:28:16.287Z,10.18
2022-12-28T23:30:46.541Z,10.20
2022-12-28T23:33:13.694Z,10.35
2022-12-28T23:35:40.451Z,10.18
2022-12-28T23:38:07.210Z,9.68
2022-12-28T23:40:34.064Z,10.38
2022-12-28T23:43:00.901Z,10.38
2022-12-28T23:45:27.709Z,10.27
2022-12-28T23:47:54.867Z,10.02
2022-12-28T23:50:21.743Z,10.50
2022-12-28T23:52:48.605Z,10.60
2022-12-28T23:55:15.647Z,10.32
2022-12-28T23:57:42.540Z,10.80
